KVBG/VBG METAR and TAF weather

Enter ICAO airport designator
Station Type Date Time Source
KVBG METAR 2019/05/26 00:58 UTC NOAA

KVBG 260058Z AUTO 34007KT 9SM OVC021 13/09 A2991 RMK AO2 SLP132 T01340086


Station Type Date Time Source
KVBG Decoded METAR 2019/05/26 00:58 UTC NOAA

Lompoc, Vandenberg Air Force Base, CA, United States (KVBG) 34-43-46N 120-34-36W 121M
May 25, 2019 - 08:58 PM EDT / 2019.05.26 0058 UTC
Wind: from the NNW (340 degrees) at 8 MPH (7 KT):0
Visibility: 9 mile(s):0
Sky conditions: overcast
Temperature: 56.1 F (13.4 C)
Dew Point: 47.5 F (8.6 C)
Relative Humidity: 72%
Pressure (altimeter): 29.91 in. Hg (1012 hPa)
ob: KVBG 260058Z AUTO 34007KT 9SM OVC021 13/09 A2991 RMK AO2 SLP132 T01340086
cycle: 1

Station Type Date Time Source
KVBG TAF 2019/05/24 21:19 UTC NOAA

TAF
AMD KVBG 242100Z 2421/2520 VRB06KT 9999 FEW010 QNH2997INS
BECMG 2502/2503 31012KT 9000 BR FEW005 SCT015 QNH2998INS
BECMG 2510/2511 VRB06KT 6000 BR SCT005 SCT015 QNH3003INS TX18/2421Z TN09/2513Z LAST NO
AMDS AFT 2421 NEXT 2706

Example: see airport list